KDAA/DAA METAR and TAF weather

Enter ICAO airport designator
Station Type Date Time Source
KDAA METAR 2020/12/05 05:56 UTC NOAA

KDAA 050556Z AUTO 36003KT 6SM RA BR SCT007 BKN032 OVC044 09/08 A2976 RMK AO2 SLP081 P0016 60065 T00880077 10092 20078 57045 $


Station Type Date Time Source
KDAA Decoded METAR 2020/12/05 05:56 UTC NOAA

Fort Belvoir, VA, United States (KDAA) 38-43N 077-11W
Dec 05, 2020 - 12:56 AM EST / 2020.12.05 0556 UTC
Wind: from the N (360 degrees) at 3 MPH (3 KT):0
Visibility: 6 mile(s):0
Sky conditions: overcast
Weather: rain; mist
Precipitation last hour: 0.16 inches
Temperature: 47.8 F (8.8 C)
Dew Point: 45.9 F (7.7 C)
Relative Humidity: 92%
Pressure (altimeter): 29.76 in. Hg (1007 hPa)
Pressure tendency: 0.13 inches (4.5 hPa) lower than three hours ago
ob: KDAA 050556Z AUTO 36003KT 6SM RA BR SCT007 BKN032 OVC044 09/08 A2976 RMK AO2 SLP081 P0016 60065 T00880077 10092 20078 57045
cycle: 6

Station Type Date Time Source
KDAA TAF 2020/12/04 21:06 UTC NOAA

TAF TAF KDAA 042100Z 0421/0603 VRB06KT 8000 -RA SCT035 OVC070 620809 QNH3000INS
BECMG 0502/0503 VRB06KT 4800 RA OVC008 650609 QNH2993INS
BECMG 0508/0509 35006KT 8000 -RA BR SCT008 OVC025 620409 520209 QNH2976INS
BECMG 0510/0511 33010G15KT 9999 NSW BKN040 620409 QNH2977INS
BECMG 0513/0514 32015G30KT 9999 SCT040 520009 QNH2989INS TX12/0422Z TN06/0513Z LAST NO
AMDS AFT 0502 NEXT 0713

Example: see airport list